Wheelock, Texas
Current Conditions -  °F | °C
As of 2:55 AM on Sunday 23 Nov 2014 (Local Time) from KCFD Reporting Station
Overcast Overcast  
Wind Chill: 58°   Ceiling: 300
Heat Index: 58°   Visibility: 10mi
Dew Point: 58°   Wind: 6mph
Humidity: 99%   Direction: 210°SSW
Pressure: 29.64"   Gusts: NA
Location:  30.9°N, 96.39°W
Report Text: KCFD 230855Z AUTO 21005KT 10SM OVC003 15/14 A2964 RMK AO2 60002 T01450143
Loading
Personal Weather Stations






























Interactive Weather Map New forecast layout! Learn more

10-Day Weather Forecast

Advertisements
Track Severe Weather on mobile